• Join FlightAware (Why Join?)
  • Login
  • US Flag 
09:18AM EDT


 

Airport Tracker/Info


-or-


 

Live Flight TrackerFlight Track Log ✈ N1881Q ✈ 26-Aug-2013 ✈ KITH - KITH

Flight Track Log - Related Links

Times and Time Zones

All times are in EDT time to prevent confusion due to time zone crossing. See the N1881Q flight status page for this flight to view local times or setup timezone preferences in your user account.

Time Position Orientation Groundspeed Altitude Reporting Facility
EDT Latitude Longitude Course Direction KTS MPH feet Rate Location/Type
02:26PM 42.4042 -76.5750 56° Northeast 299 344 6,900  Level New York Center
02:27PM 42.3306 -76.6300 209° Southwest 279 321 8,800 1,500 Climbing New York Center
02:28PM 42.2400 -76.6081 170° South 319 367 10,000 600 Climbing New York Center
02:29PM 42.1378 -76.5711 165° South 357 411 10,000  Level New York Center
02:30PM 42.4914 -76.4587 56° Northeast  Level Estimated
02:30PM 42.0358 -76.5286 163° South 375 432 10,000  Level New York Center
02:31PM 42.4914 -76.4587 56° Northeast  Level Estimated
02:31PM 41.9353 -76.4947 166° South 375 432 10,000  Level New York Center
02:32PM 41.8331 -76.4553 164° South 380 437 10,000  Level New York Center
02:33PM 41.7419 -76.4892 196° South 345 397 10,000  Level New York Center
02:34PM 41.7556 -76.5933 280° West 221 254 10,000  Level New York Center
02:35PM 41.8528 -76.6100 353° North 168 193 10,000  Level New York Center
02:36PM 41.9436 -76.5792 14° North 253 291 10,000  Level New York Center
02:37PM 42.0353 -76.5397 18° North 298 343 10,000 -300 Level New York Center
02:38PM 42.1183 -76.5022 19° North 310 357 9,400 -1,080 Descending New York Center
02:39PM 42.1911 -76.4608 23° Northeast 295 339 7,900 -1,980 Descending New York Center
02:40PM 42.2486 -76.3875 43° Northeast 280 322 5,500 -1,920 Descending New York Center
02:41PM 42.3167 -76.3092 40° Northeast 280 322 4,100 -1,080 Descending New York Center
02:42PM 42.3778 -76.2975 North 241 277 3,400 -420 Descending New York Center
02:43PM 42.4169 -76.3514 315° West 187 215 3,300 -540 Descending New York Center
02:44PM 42.4378 -76.3925 304° West 157 181 2,400 -600 Descending New York Center
02:45PM 42.4756 -76.4267 326° Northwest 157 181 2,200 3,300 Descending New York Center
02:46PM 42.5097 -76.4578 326° Northwest 157 181 9,000 3,360 Climbing New York Center
02:47PM 42.5456 -76.4889 327° Northwest 157 181 9,000  Level New York Center
02:48PM 42.5794 -76.5200 326° Northwest 157 181 9,000  Level New York Center
02:49PM 42.5875 -76.5264 330° Northwest 157 181 9,000  Level New York Center
02:50PM 42.5875 -76.5264 90° East 157 181 9,000  Level New York Center
02:52PM 42.5875 -76.5264 90° East 157 181 9,000  Level New York Center
02:54PM 42.4927 -76.4568 152° Southeast  Level FlightAware Approximate
03:01PM 42.4914 -76.4587 154° Southeast  Level Estimated
03:02PM 42.4914 -76.4587 154° Southeast  Level Estimated
03:03PM 42.4914 -76.4587 154° Southeast  Level Estimated
03:04PM 42.4914 -76.4587 154° Southeast  Level Estimated
03:05PM 42.4914 -76.4587 154° Southeast  Level Estimated
03:06PM 42.4914 -76.4587 154° Southeast  Level Estimated